createdAt,value
2023-01-08T00:00:39.551Z,100245.50
2023-01-08T00:01:41.273Z,100247.16
2023-01-08T00:02:43.432Z,100245.31
2023-01-08T00:03:45.323Z,100239.31
2023-01-08T00:04:46.927Z,100242.75
2023-01-08T00:05:48.788Z,100239.25
2023-01-08T00:06:50.439Z,100243.63
2023-01-08T00:07:51.868Z,100246.22
2023-01-08T00:08:53.834Z,100242.72
2023-01-08T00:09:55.294Z,100235.81
2023-01-08T00:10:59.919Z,100243.63
2023-01-08T00:12:01.657Z,100241.88
2023-01-08T00:13:05.335Z,100245.31
2023-01-08T00:14:07.376Z,100237.44
2023-01-08T00:15:09.129Z,100232.22
2023-01-08T00:16:15.729Z,100234.75
2023-01-08T00:17:17.258Z,100236.41
2023-01-08T00:18:18.770Z,100231.25
2023-01-08T00:19:20.532Z,100234.66
2023-01-08T00:20:22.396Z,100228.56
2023-01-08T00:21:24.003Z,100230.31
2023-01-08T00:22:25.644Z,100229.47
2023-01-08T00:23:27.283Z,100232.06
2023-01-08T00:24:28.799Z,100233.75
2023-01-08T00:25:30.390Z,100230.31
2023-01-08T00:26:32.438Z,100230.31
2023-01-08T00:27:33.870Z,100229.47
2023-01-08T00:28:36.848Z,100228.53
2023-01-08T00:29:38.712Z,100219.81
2023-01-08T00:30:40.362Z,100215.53
2023-01-08T00:31:41.990Z,100212.06
2023-01-08T00:32:43.417Z,100210.31
2023-01-08T00:33:47.736Z,100208.47
2023-01-08T00:34:49.265Z,100204.94
2023-01-08T00:35:50.933Z,100211.81
2023-01-08T00:36:52.368Z,100215.31
2023-01-08T00:37:54.126Z,100210.94
2023-01-08T00:38:55.741Z,100215.25
2023-01-08T00:39:57.295Z,100209.19
2023-01-08T00:40:58.762Z,100214.41
2023-01-08T00:42:00.378Z,100209.19
2023-01-08T00:43:02.044Z,100216.28
2023-01-08T00:44:03.662Z,100205.88
2023-01-08T00:45:06.151Z,100208.47
2023-01-08T00:46:08.770Z,100211.94
2023-01-08T00:47:10.559Z,100212.66
2023-01-08T00:48:12.130Z,100204.84
2023-01-08T00:49:13.551Z,100206.63
2023-01-08T00:50:15.249Z,100201.44
2023-01-08T00:51:16.731Z,100210.16
2023-01-08T00:52:18.365Z,100207.59
2023-01-08T00:53:21.679Z,100198.00
2023-01-08T00:54:23.341Z,100198.94
2023-01-08T00:55:24.765Z,100201.47
2023-01-08T00:56:26.402Z,100194.50
2023-01-08T00:57:33.760Z,100205.75
2023-01-08T00:58:35.222Z,100203.16
2023-01-08T00:59:36.687Z,100198.81
2023-01-08T01:00:38.704Z,100197.13
2023-01-08T01:01:40.218Z,100202.31
2023-01-08T01:02:42.720Z,100197.19
2023-01-08T01:03:45.201Z,100185.06
2023-01-08T01:04:46.917Z,100190.22
2023-01-08T01:05:49.492Z,100192.03
2023-01-08T01:06:51.118Z,100183.34
2023-01-08T01:07:53.055Z,100193.88
2023-01-08T01:08:54.620Z,100188.66
2023-01-08T01:09:56.083Z,100187.81
2023-01-08T01:10:57.822Z,100183.44
2023-01-08T01:11:59.320Z,100186.84
2023-01-08T01:13:00.781Z,100181.63
2023-01-08T01:14:02.231Z,100180.75
2023-01-08T01:15:05.149Z,100185.09
2023-01-08T01:16:06.892Z,100189.50
2023-01-08T01:17:08.388Z,100194.72
2023-01-08T01:18:09.977Z,100191.31
2023-01-08T01:19:12.011Z,100198.25
2023-01-08T01:20:16.520Z,100193.97
2023-01-08T01:21:23.919Z,100201.78
2023-01-08T01:22:25.607Z,100198.25
2023-01-08T01:23:27.277Z,100190.44
2023-01-08T01:24:29.063Z,100197.38
2023-01-08T01:25:30.698Z,100198.34
2023-01-08T01:26:33.792Z,100188.81
2023-01-08T01:27:35.858Z,100188.75
2023-01-08T01:28:37.257Z,100185.25
2023-01-08T01:29:38.751Z,100190.44
2023-01-08T01:30:40.405Z,100191.22
2023-01-08T01:31:41.997Z,100192.16
2023-01-08T01:32:43.441Z,100193.97
2023-01-08T01:33:45.961Z,100191.28
2023-01-08T01:34:47.658Z,100194.72
2023-01-08T01:35:49.164Z,100192.03
2023-01-08T01:36:50.581Z,100186.88
2023-01-08T01:37:52.250Z,100191.13
2023-01-08T01:38:57.297Z,100197.16
2023-01-08T01:39:59.030Z,100193.66
2023-01-08T01:41:00.615Z,100198.00
2023-01-08T01:42:02.248Z,100195.34
2023-01-08T01:43:03.711Z,100199.66
2023-01-08T01:44:36.103Z,100197.97
2023-01-08T01:45:37.955Z,100201.47
2023-01-08T01:46:40.865Z,100195.38
2023-01-08T01:47:48.012Z,100196.22
2023-01-08T01:48:55.708Z,100199.66
2023-01-08T01:50:02.376Z,100207.50
2023-01-08T01:51:04.233Z,100195.53
2023-01-08T01:52:09.299Z,100195.50
2023-01-08T01:53:17.346Z,100195.50
2023-01-08T01:54:19.908Z,100195.50
2023-01-08T01:55:21.563Z,100193.75
2023-01-08T01:56:23.330Z,100195.50
2023-01-08T01:57:25.058Z,100189.44
2023-01-08T01:58:29.752Z,100186.81
2023-01-08T01:59:31.363Z,100186.75
2023-01-08T02:00:34.740Z,100186.81
2023-01-08T02:01:36.906Z,100181.56
2023-01-08T02:02:41.834Z,100181.47
2023-01-08T02:03:43.656Z,100178.91
2023-01-08T02:04:45.268Z,100176.41
2023-01-08T02:05:52.833Z,100181.56
2023-01-08T02:07:09.117Z,100174.56
2023-01-08T02:08:18.571Z,100172.78
2023-01-08T02:09:43.707Z,100179.69
2023-01-08T02:10:54.123Z,100176.19
2023-01-08T02:12:19.202Z,100173.63
2023-01-08T02:13:27.115Z,100170.13
2023-01-08T02:15:07.282Z,100169.19
2023-01-08T02:16:19.593Z,100172.50
2023-01-08T02:17:32.155Z,100163.78
2023-01-08T02:18:57.903Z,100159.41
2023-01-08T02:20:26.132Z,100165.38
2023-01-08T02:21:53.524Z,100152.34
2023-01-08T02:23:16.257Z,100147.09
2023-01-08T02:24:36.098Z,100147.91
2023-01-08T02:26:15.184Z,100146.06
2023-01-08T02:27:20.999Z,100147.72
2023-01-08T02:28:23.926Z,100143.41
2023-01-08T02:29:28.983Z,100133.88
2023-01-08T02:30:31.241Z,100134.78
2023-01-08T02:31:35.224Z,100131.38
2023-01-08T02:32:39.576Z,100132.22
2023-01-08T02:33:41.265Z,100127.84
2023-01-08T02:34:42.746Z,100128.69
2023-01-08T02:36:21.051Z,100123.41
2023-01-08T02:37:22.988Z,100122.63
2023-01-08T02:38:26.350Z,100121.69
2023-01-08T02:39:52.468Z,100115.66
2023-01-08T02:41:05.308Z,100110.41
2023-01-08T02:42:44.906Z,100117.25
2023-01-08T02:43:51.992Z,100108.47
2023-01-08T02:45:35.409Z,100107.63
2023-01-08T02:46:41.833Z,100114.53
2023-01-08T02:47:54.451Z,100111.03
2023-01-08T02:49:04.410Z,100106.69
2023-01-08T02:50:14.687Z,100108.47
2023-01-08T02:51:29.811Z,100105.88
2023-01-08T02:52:38.747Z,100102.38
2023-01-08T02:53:45.645Z,100104.94
2023-01-08T02:54:48.969Z,100097.09
2023-01-08T02:55:57.614Z,100087.56
2023-01-08T02:57:12.329Z,100097.09
2023-01-08T02:58:15.109Z,100090.09
2023-01-08T02:59:20.593Z,100089.25
2023-01-08T03:00:23.837Z,100087.56
2023-01-08T03:01:28.059Z,100082.31
2023-01-08T03:02:35.355Z,100084.06
2023-01-08T03:03:41.682Z,100088.34
2023-01-08T03:04:57.346Z,100086.66
2023-01-08T03:06:09.031Z,100089.19
2023-01-08T03:07:11.397Z,100086.53
2023-01-08T03:08:13.614Z,100086.56
2023-01-08T03:09:16.970Z,100083.94
2023-01-08T03:10:24.798Z,100086.56
2023-01-08T03:11:36.375Z,100080.50
2023-01-08T03:12:57.367Z,100080.50
2023-01-08T03:14:15.785Z,100084.81
2023-01-08T03:15:26.520Z,100084.84
2023-01-08T03:16:52.512Z,100085.72
2023-01-08T03:18:01.236Z,100081.38
2023-01-08T03:19:11.626Z,100077.13
2023-01-08T03:20:23.093Z,100077.13
2023-01-08T03:21:25.843Z,100078.81
2023-01-08T03:22:31.560Z,100076.28
2023-01-08T03:23:38.487Z,100084.06
2023-01-08T03:24:42.964Z,100081.47
2023-01-08T03:25:47.396Z,100086.66
2023-01-08T03:26:53.686Z,100087.50
2023-01-08T03:28:01.550Z,100086.63
2023-01-08T03:29:09.831Z,100088.34
2023-01-08T03:30:13.200Z,100084.91
2023-01-08T03:31:17.761Z,100085.81
2023-01-08T03:32:22.939Z,100084.88
2023-01-08T03:33:27.842Z,100081.41
2023-01-08T03:34:33.631Z,100084.88
2023-01-08T03:35:41.324Z,100075.34
2023-01-08T03:36:48.072Z,100080.53
2023-01-08T03:38:01.728Z,100077.91
2023-01-08T03:39:19.991Z,100072.69
2023-01-08T03:40:31.081Z,100074.38
2023-01-08T03:41:36.406Z,100074.38
2023-01-08T03:42:38.176Z,100071.00
2023-01-08T03:43:40.078Z,100076.22
2023-01-08T03:44:42.303Z,100081.41
2023-01-08T03:45:51.789Z,100080.56
2023-01-08T03:46:56.739Z,100073.59
2023-01-08T03:48:04.424Z,100077.97
2023-01-08T03:49:08.814Z,100073.63
2023-01-08T03:50:17.706Z,100077.06
2023-01-08T03:51:19.167Z,100078.78
2023-01-08T03:52:25.713Z,100081.38
2023-01-08T03:53:28.204Z,100080.56
2023-01-08T03:54:34.933Z,100081.38
2023-01-08T03:55:36.599Z,100077.94
2023-01-08T03:56:38.308Z,100074.44
2023-01-08T03:57:39.797Z,100074.53
2023-01-08T03:58:41.330Z,100070.19
2023-01-08T03:59:43.098Z,100071.88
2023-01-08T04:00:44.518Z,100065.75
2023-01-08T04:01:46.414Z,100063.97
2023-01-08T04:02:48.208Z,100063.00
2023-01-08T04:03:49.804Z,100059.56
2023-01-08T04:04:51.239Z,100058.72
2023-01-08T04:05:52.673Z,100059.63
2023-01-08T04:06:54.146Z,100057.88
2023-01-08T04:07:56.785Z,100053.59
2023-01-08T04:08:58.598Z,100063.06
2023-01-08T04:10:00.150Z,100061.34
2023-01-08T04:11:01.616Z,100061.34
2023-01-08T04:12:03.887Z,100062.22
2023-01-08T04:13:05.390Z,100070.78
2023-01-08T04:14:06.936Z,100065.66
2023-01-08T04:15:09.085Z,100064.84
2023-01-08T04:16:10.783Z,100057.91
2023-01-08T04:17:13.720Z,100048.38
2023-01-08T04:18:15.553Z,100049.19
2023-01-08T04:19:16.985Z,100049.19
2023-01-08T04:20:18.455Z,100040.56
2023-01-08T04:21:19.941Z,100042.31
2023-01-08T04:22:21.615Z,100052.69
2023-01-08T04:23:23.463Z,100050.09
2023-01-08T04:24:24.918Z,100039.69
2023-01-08T04:25:26.598Z,100041.41
2023-01-08T04:26:28.246Z,100040.53
2023-01-08T04:27:30.605Z,100044.00
2023-01-08T04:28:32.122Z,100042.31
2023-01-08T04:29:33.608Z,100041.47
2023-01-08T04:30:35.308Z,100040.59
2023-01-08T04:31:36.952Z,100042.34
2023-01-08T04:32:38.388Z,100033.66
2023-01-08T04:33:39.852Z,100035.38
2023-01-08T04:34:41.478Z,100031.03
2023-01-08T04:35:43.347Z,100031.03
2023-01-08T04:36:44.774Z,100029.31
2023-01-08T04:37:46.212Z,100031.97
2023-01-08T04:38:47.873Z,100036.25
2023-01-08T04:39:49.398Z,100033.66
2023-01-08T04:40:55.810Z,100031.03
2023-01-08T04:41:57.300Z,100038.06
2023-01-08T04:42:59.170Z,100042.44
2023-01-08T04:44:00.827Z,100038.09
2023-01-08T04:45:02.480Z,100045.88
2023-01-08T04:46:09.448Z,100044.19
2023-01-08T04:47:10.880Z,100036.41
2023-01-08T04:48:12.287Z,100039.75
2023-01-08T04:49:14.263Z,100034.56
2023-01-08T04:50:15.892Z,100031.13
2023-01-08T04:51:17.393Z,100035.50
2023-01-08T04:52:19.354Z,100040.69
2023-01-08T04:53:20.902Z,100038.94
2023-01-08T04:54:22.536Z,100031.13
2023-01-08T04:55:24.019Z,100031.06
2023-01-08T04:56:25.552Z,100038.06
2023-01-08T04:57:26.990Z,100036.31
2023-01-08T04:58:28.428Z,100040.59
2023-01-08T04:59:29.869Z,100035.41
2023-01-08T05:00:31.324Z,100029.31
2023-01-08T05:01:33.160Z,100025.84
2023-01-08T05:02:35.242Z,100026.72
2023-01-08T05:03:36.946Z,100032.72
2023-01-08T05:04:38.580Z,100029.28
2023-01-08T05:05:40.516Z,100023.22
2023-01-08T05:06:42.114Z,100019.75
2023-01-08T05:07:43.747Z,100023.19
2023-01-08T05:08:45.383Z,100020.59
2023-01-08T05:09:46.843Z,100020.59
2023-01-08T05:10:48.255Z,100018.84
2023-01-08T05:11:49.885Z,100023.19
2023-01-08T05:12:51.559Z,100026.72
2023-01-08T05:13:53.830Z,100030.22
2023-01-08T05:14:55.246Z,100025.03
2023-01-08T05:16:01.345Z,100019.78
2023-01-08T05:17:02.830Z,100012.81
2023-01-08T05:18:06.363Z,100013.66
2023-01-08T05:19:07.890Z,100006.78
2023-01-08T05:20:09.939Z,99998.94
2023-01-08T05:21:13.216Z,100003.22
2023-01-08T05:22:14.705Z,99995.44
2023-01-08T05:23:16.086Z,99996.34
2023-01-08T05:24:17.748Z,99998.09
2023-01-08T05:25:19.563Z,99993.72
2023-01-08T05:26:21.380Z,99993.72
2023-01-08T05:27:22.799Z,99997.97
2023-01-08T05:28:25.097Z,99990.09
2023-01-08T05:29:26.790Z,100006.53
2023-01-08T05:30:28.410Z,100005.59
2023-01-08T05:31:29.992Z,100000.41
2023-01-08T05:32:31.507Z,99996.91
2023-01-08T05:33:32.971Z,100001.25
2023-01-08T05:34:34.583Z,100002.16
2023-01-08T05:35:38.835Z,99999.56
2023-01-08T05:36:40.358Z,100002.13
2023-01-08T05:37:41.890Z,100006.44
2023-01-08T05:38:43.527Z,100003.84
2023-01-08T05:39:44.967Z,100009.91
2023-01-08T05:40:46.452Z,100008.13
2023-01-08T05:41:47.886Z,100016.72
2023-01-08T05:42:49.516Z,100013.31
2023-01-08T05:43:51.039Z,100015.91
2023-01-08T05:44:52.689Z,100010.63
2023-01-08T05:45:54.369Z,100009.75
2023-01-08T05:46:58.041Z,100007.97
2023-01-08T05:48:00.052Z,100018.31
2023-01-08T05:49:01.553Z,100014.00
2023-01-08T05:50:03.535Z,100017.47
2023-01-08T05:51:06.239Z,100016.56
2023-01-08T05:52:07.669Z,100016.50
2023-01-08T05:53:10.615Z,100013.06
2023-01-08T05:54:12.295Z,100011.28
2023-01-08T05:55:14.032Z,100007.03
2023-01-08T05:56:15.724Z,100011.31
2023-01-08T05:57:17.664Z,100015.66
2023-01-08T05:58:19.285Z,100011.28
2023-01-08T05:59:21.128Z,100011.31
2023-01-08T06:00:24.260Z,100009.59
2023-01-08T06:01:25.775Z,100000.94
2023-01-08T06:02:28.986Z,100000.94
2023-01-08T06:03:30.474Z,100002.69
2023-01-08T06:04:32.152Z,100002.69
2023-01-08T06:05:33.715Z,100000.09
2023-01-08T06:06:35.215Z,99999.25
2023-01-08T06:07:36.876Z,100002.69
2023-01-08T06:08:39.362Z,99999.25
2023-01-08T06:09:40.777Z,100000.94
2023-01-08T06:10:42.233Z,100011.38
2023-01-08T06:11:43.942Z,100007.09
2023-01-08T06:12:45.443Z,100007.97
2023-01-08T06:13:46.948Z,100014.03
2023-01-08T06:14:48.341Z,100012.28
2023-01-08T06:15:49.786Z,100017.47
2023-01-08T06:16:52.181Z,100013.34
2023-01-08T06:17:53.604Z,100017.72
2023-01-08T06:18:55.076Z,100014.22
2023-01-08T06:19:56.495Z,100013.38
2023-01-08T06:20:58.020Z,100006.41
2023-01-08T06:21:59.800Z,100008.13
2023-01-08T06:23:01.272Z,100004.66
2023-01-08T06:24:03.079Z,100005.59
2023-01-08T06:25:05.048Z,100006.44
2023-01-08T06:26:08.744Z,100010.72
2023-01-08T06:27:10.261Z,100005.50
2023-01-08T06:28:11.712Z,100002.84
2023-01-08T06:29:13.506Z,100011.47
2023-01-08T06:30:14.967Z,100015.75
2023-01-08T06:31:16.442Z,100008.81
2023-01-08T06:32:19.097Z,100012.31
2023-01-08T06:33:21.608Z,100008.84
2023-01-08T06:34:23.345Z,100007.94
2023-01-08T06:35:25.433Z,100005.28
2023-01-08T06:36:27.102Z,99996.56
2023-01-08T06:37:28.602Z,99998.41
2023-01-08T06:38:34.924Z,100004.41
2023-01-08T06:39:36.409Z,100000.91
2023-01-08T06:40:38.052Z,100004.41
2023-01-08T06:41:39.773Z,100002.59
2023-01-08T06:42:41.341Z,100003.38
2023-01-08T06:43:42.758Z,100011.13
2023-01-08T06:44:44.723Z,100005.13
2023-01-08T06:45:53.387Z,99998.19
2023-01-08T06:46:54.860Z,100007.72
2023-01-08T06:48:01.846Z,100013.72
2023-01-08T06:49:03.496Z,100013.72
2023-01-08T06:50:06.743Z,100003.41
2023-01-08T06:51:08.479Z,100001.69
2023-01-08T06:52:11.034Z,100000.84
2023-01-08T06:53:12.663Z,100003.50
2023-01-08T06:54:14.316Z,100006.22
2023-01-08T06:55:15.938Z,100012.38
2023-01-08T06:56:17.624Z,100009.84
2023-01-08T06:57:19.323Z,100012.44
2023-01-08T06:58:20.783Z,100015.09
2023-01-08T06:59:22.264Z,100002.97
2023-01-08T07:00:26.247Z,100014.22
2023-01-08T07:01:44.705Z,100013.44
2023-01-08T07:02:46.586Z,100011.69
2023-01-08T07:03:48.122Z,100007.41
2023-01-08T07:04:49.752Z,100008.19
2023-01-08T07:05:51.279Z,100005.66
2023-01-08T07:06:52.786Z,100009.09
2023-01-08T07:07:54.464Z,100011.81
2023-01-08T07:08:56.867Z,100020.53
2023-01-08T07:09:58.418Z,100013.59
2023-01-08T07:11:04.240Z,100018.84
2023-01-08T07:12:06.042Z,100034.41
2023-01-08T07:13:10.720Z,100033.56
2023-01-08T07:14:12.424Z,100036.16
2023-01-08T07:15:14.439Z,100037.06
2023-01-08T07:16:16.233Z,100037.06
2023-01-08T07:17:17.790Z,100071.75
2023-01-08T07:18:19.246Z,100097.00
2023-01-08T07:19:20.683Z,100096.72
2023-01-08T07:20:22.118Z,100092.22
2023-01-08T07:21:23.821Z,100078.16
2023-01-08T07:22:25.989Z,100084.88
2023-01-08T07:23:27.559Z,100075.94
2023-01-08T07:24:29.320Z,100079.16
2023-01-08T07:25:31.512Z,100078.78
2023-01-08T07:26:33.499Z,100073.38
2023-01-08T07:27:34.952Z,100074.84
2023-01-08T07:28:36.370Z,100079.06
2023-01-08T07:29:37.843Z,100077.31
2023-01-08T07:30:39.409Z,100066.00
2023-01-08T07:31:41.154Z,100072.88
2023-01-08T07:32:42.582Z,100069.38
2023-01-08T07:33:44.731Z,100070.97
2023-01-08T07:34:46.349Z,100069.25
2023-01-08T07:35:54.642Z,100068.28
2023-01-08T07:36:56.376Z,100069.09
2023-01-08T07:37:57.930Z,100072.53
2023-01-08T07:38:59.598Z,100075.06
2023-01-08T07:40:01.195Z,100073.25
2023-01-08T07:41:02.880Z,100074.94
2023-01-08T07:42:04.418Z,100055.00
2023-01-08T07:43:06.803Z,100069.69
2023-01-08T07:44:08.409Z,100073.19
2023-01-08T07:45:10.214Z,100066.28
2023-01-08T07:46:11.741Z,100069.63
2023-01-08T07:47:13.203Z,100066.13
2023-01-08T07:48:17.893Z,100069.69
2023-01-08T07:49:19.348Z,100071.38
2023-01-08T07:50:23.105Z,100070.44
2023-01-08T07:51:27.231Z,100067.94
2023-01-08T07:52:29.183Z,100067.03
2023-01-08T07:53:31.061Z,100065.34
2023-01-08T07:54:32.684Z,100056.69
2023-01-08T07:55:34.119Z,100060.25
2023-01-08T07:56:35.733Z,100064.53
2023-01-08T07:57:37.383Z,100063.66
2023-01-08T07:58:38.956Z,100058.47
2023-01-08T07:59:40.434Z,100062.81
2023-01-08T08:00:42.232Z,100063.66
2023-01-08T08:01:43.756Z,100072.34
2023-01-08T08:02:46.602Z,100067.16
2023-01-08T08:03:48.337Z,100063.75
2023-01-08T08:04:50.002Z,100065.53
2023-01-08T08:05:51.982Z,100058.56
2023-01-08T08:06:54.472Z,100053.44
2023-01-08T08:07:55.934Z,100059.53
2023-01-08T08:08:57.673Z,100058.66
2023-01-08T08:09:59.246Z,100062.22
2023-01-08T08:11:01.254Z,100059.72
2023-01-08T08:12:02.762Z,100056.28
2023-01-08T08:13:04.889Z,100058.94
2023-01-08T08:14:07.210Z,100054.69
2023-01-08T08:15:09.611Z,100050.38
2023-01-08T08:16:12.694Z,100059.94
2023-01-08T08:17:14.187Z,100056.53
2023-01-08T08:18:15.641Z,100059.19
2023-01-08T08:19:17.266Z,100056.59
2023-01-08T08:20:18.953Z,100057.50
2023-01-08T08:21:20.504Z,100057.50
2023-01-08T08:22:24.309Z,100060.09
2023-01-08T08:23:26.039Z,100060.09
2023-01-08T08:24:27.503Z,100061.84
2023-01-08T08:25:30.016Z,100059.31
2023-01-08T08:26:31.530Z,100051.56
2023-01-08T08:27:33.213Z,100046.38
2023-01-08T08:28:34.661Z,100041.31
2023-01-08T08:29:36.236Z,100043.97
2023-01-08T08:30:42.012Z,100039.69
2023-01-08T08:31:43.967Z,100042.28
2023-01-08T08:32:45.450Z,100036.25
2023-01-08T08:33:46.991Z,100041.50
2023-01-08T08:34:50.784Z,100040.63
2023-01-08T08:35:52.205Z,100033.78
2023-01-08T08:36:53.722Z,100040.69
2023-01-08T08:37:57.103Z,100038.16
2023-01-08T08:38:58.618Z,100033.00
2023-01-08T08:40:00.142Z,100039.06
2023-01-08T08:41:01.871Z,100038.22
2023-01-08T08:42:03.550Z,100031.34
2023-01-08T08:43:05.518Z,100035.75
2023-01-08T08:44:07.080Z,100032.31
2023-01-08T08:45:08.918Z,100029.72
2023-01-08T08:46:10.732Z,100038.44
2023-01-08T08:47:13.146Z,100023.84
2023-01-08T08:48:16.833Z,100027.28
2023-01-08T08:49:18.577Z,100022.22
2023-01-08T08:50:20.921Z,100027.34
2023-01-08T08:51:22.459Z,100028.19
2023-01-08T08:52:23.988Z,100028.19
2023-01-08T08:53:27.572Z,100022.22
2023-01-08T08:54:29.167Z,100025.59
2023-01-08T08:55:31.267Z,100028.25
2023-01-08T08:56:32.691Z,100020.47
2023-01-08T08:57:34.125Z,100025.59
2023-01-08T08:58:35.614Z,100021.28
2023-01-08T08:59:37.693Z,100025.56
2023-01-08T09:00:41.389Z,100017.78
2023-01-08T09:01:43.161Z,100021.25
2023-01-08T09:02:44.877Z,100017.88
2023-01-08T09:03:46.667Z,100016.25
2023-01-08T09:04:48.113Z,100017.09
2023-01-08T09:05:49.530Z,100015.34
2023-01-08T09:06:51.049Z,100011.84
2023-01-08T09:07:54.152Z,100017.03
2023-01-08T09:08:56.004Z,100026.56
2023-01-08T09:09:57.666Z,100013.59
2023-01-08T09:10:59.083Z,100014.50
2023-01-08T09:12:00.808Z,100016.25
2023-01-08T09:13:02.294Z,100014.56
2023-01-08T09:14:03.780Z,100014.56
2023-01-08T09:15:05.771Z,100008.53
2023-01-08T09:16:07.562Z,100008.53
2023-01-08T09:17:09.240Z,100011.97
2023-01-08T09:18:10.825Z,99999.03
2023-01-08T09:19:12.582Z,99993.03
2023-01-08T09:20:14.279Z,100000.00
2023-01-08T09:21:15.871Z,99987.88
2023-01-08T09:22:17.495Z,99998.31
2023-01-08T09:23:19.018Z,99991.38
2023-01-08T09:24:20.603Z,99994.91
2023-01-08T09:25:22.032Z,99984.50
2023-01-08T09:26:23.788Z,99990.59
2023-01-08T09:27:25.428Z,99998.41
2023-01-08T09:28:27.145Z,99995.81
2023-01-08T09:29:28.772Z,100000.16
2023-01-08T09:30:30.629Z,100001.06
2023-01-08T09:31:32.225Z,100000.22
2023-01-08T09:32:33.720Z,99996.81
2023-01-08T09:33:35.231Z,99995.06
2023-01-08T09:34:36.850Z,100000.34
2023-01-08T09:35:38.310Z,99999.53
2023-01-08T09:36:39.778Z,100003.06
2023-01-08T09:37:41.276Z,100004.84
2023-01-08T09:38:44.142Z,100003.09
2023-01-08T09:39:50.978Z,100003.16
2023-01-08T09:41:05.476Z,99999.78
2023-01-08T09:42:07.865Z,100004.13
2023-01-08T09:43:18.786Z,100007.56
2023-01-08T09:44:26.738Z,100000.56
2023-01-08T09:45:31.594Z,99997.00
2023-01-08T09:46:35.730Z,99998.72
2023-01-08T09:47:43.472Z,99991.69
2023-01-08T09:48:46.283Z,99995.97
2023-01-08T09:49:51.898Z,99996.72
2023-01-08T09:50:53.723Z,99996.56
2023-01-08T09:51:55.659Z,99994.75
2023-01-08T09:52:57.930Z,99997.25
2023-01-08T09:53:59.936Z,99996.31
2023-01-08T09:55:01.973Z,99996.25
2023-01-08T09:56:12.439Z,99993.50
2023-01-08T09:57:19.396Z,99994.28
2023-01-08T09:58:39.399Z,99995.91
2023-01-08T09:59:42.579Z,99988.94
2023-01-08T10:00:44.432Z,99996.66
2023-01-08T10:01:48.210Z,99996.53
2023-01-08T10:02:54.176Z,99984.38
2023-01-08T10:04:22.058Z,99992.16
2023-01-08T10:05:27.227Z,99991.28
2023-01-08T10:06:28.840Z,99986.91
2023-01-08T10:07:31.356Z,99988.59
2023-01-08T10:08:32.912Z,99988.53
2023-01-08T10:09:34.498Z,99985.09
2023-01-08T10:10:39.033Z,99984.25
2023-01-08T10:11:46.234Z,99978.28
2023-01-08T10:12:50.428Z,99976.59
2023-01-08T10:13:57.411Z,99972.22
2023-01-08T10:15:14.004Z,99974.78
2023-01-08T10:16:42.243Z,99969.59
2023-01-08T10:18:03.749Z,99972.22
2023-01-08T10:19:05.614Z,99964.53
2023-01-08T10:20:16.539Z,99963.72
2023-01-08T10:21:18.279Z,99959.53
2023-01-08T10:22:23.946Z,99955.22
2023-01-08T10:23:25.812Z,99952.66
2023-01-08T10:24:36.435Z,99950.22
2023-01-08T10:25:55.138Z,99939.91
2023-01-08T10:27:06.999Z,99943.44
2023-01-08T10:28:20.277Z,99943.50
2023-01-08T10:29:21.768Z,99934.88
2023-01-08T10:30:37.849Z,99934.88
2023-01-08T10:32:04.605Z,99924.56
2023-01-08T10:33:15.083Z,99924.81
2023-01-08T10:34:31.594Z,99921.50
2023-01-08T10:35:40.483Z,99922.72
2023-01-08T10:36:43.012Z,99923.03
2023-01-08T10:37:47.513Z,99921.53
2023-01-08T10:39:03.341Z,99921.81
2023-01-08T10:40:29.539Z,99918.41
2023-01-08T10:41:38.420Z,99915.84
2023-01-08T10:42:40.361Z,99911.56
2023-01-08T10:44:06.918Z,99916.09
2023-01-08T10:45:20.917Z,99914.50
2023-01-08T10:46:27.673Z,99922.31
2023-01-08T10:47:34.325Z,99914.47
2023-01-08T10:48:46.423Z,99914.53
2023-01-08T10:49:48.232Z,99919.81
2023-01-08T10:50:49.906Z,99916.38
2023-01-08T10:51:54.129Z,99911.22
2023-01-08T10:53:02.070Z,99908.59
2023-01-08T10:54:31.191Z,99903.41
2023-01-08T10:55:39.059Z,99909.50
2023-01-08T10:56:44.639Z,99908.66
2023-01-08T10:57:58.097Z,99904.41
2023-01-08T10:58:59.721Z,99907.06
2023-01-08T11:00:01.437Z,99891.53
2023-01-08T11:01:18.428Z,99892.50
2023-01-08T11:02:56.296Z,99890.78
2023-01-08T11:04:02.390Z,99878.69
2023-01-08T11:05:07.663Z,99878.66
2023-01-08T11:06:19.284Z,99888.22
2023-01-08T11:07:23.862Z,99878.69
2023-01-08T11:08:25.770Z,99881.28
2023-01-08T11:09:32.788Z,99874.34
2023-01-08T11:10:39.684Z,99876.97
2023-01-08T11:13:01.109Z,99871.84
2023-01-08T11:19:44.599Z,99866.00
2023-01-08T11:21:53.550Z,99865.97
2023-01-08T11:28:05.921Z,99861.59
2023-01-08T11:29:29.870Z,99854.66
2023-01-08T11:36:42.412Z,99835.72
2023-01-08T11:38:03.328Z,99834.88
2023-01-08T11:44:34.336Z,99829.66
2023-01-08T11:46:44.733Z,99832.31
2023-01-08T11:48:09.961Z,99823.59
2023-01-08T11:49:52.053Z,99815.78
2023-01-08T11:51:29.949Z,99820.13
2023-01-08T11:53:34.275Z,99805.38
2023-01-08T11:59:53.933Z,99798.41
2023-01-08T12:03:28.332Z,99806.06
2023-01-08T12:04:45.269Z,99801.72
2023-01-08T12:06:04.533Z,99804.31
2023-01-08T12:07:19.888Z,99799.94
2023-01-08T12:09:14.593Z,99804.22
2023-01-08T12:10:28.724Z,99804.13
2023-01-08T12:11:50.825Z,99811.91
2023-01-08T12:14:09.047Z,99815.38
2023-01-08T12:15:29.252Z,99816.06
2023-01-08T12:16:55.827Z,99819.41
2023-01-08T12:18:28.194Z,99812.41
2023-01-08T12:19:56.149Z,99807.16
2023-01-08T12:21:27.042Z,99803.72
2023-01-08T12:22:58.401Z,99795.06
2023-01-08T12:24:26.808Z,99796.00
2023-01-08T12:25:46.343Z,99796.00
2023-01-08T12:27:13.729Z,99803.84
2023-01-08T12:29:12.601Z,99796.97
2023-01-08T12:30:40.040Z,99791.75
2023-01-08T12:32:16.633Z,99786.56
2023-01-08T12:33:54.342Z,99790.94
2023-01-08T12:35:15.259Z,99789.19
2023-01-08T12:36:37.828Z,99783.97
2023-01-08T12:38:11.248Z,99786.56
2023-01-08T12:39:47.319Z,99783.81
2023-01-08T12:41:15.735Z,99795.06
2023-01-08T12:42:28.242Z,99792.50
2023-01-08T12:44:00.746Z,99789.06
2023-01-08T12:45:09.275Z,99791.75
2023-01-08T12:47:00.852Z,99787.34
2023-01-08T12:48:12.306Z,99780.41
2023-01-08T12:49:35.507Z,99776.91
2023-01-08T12:50:49.594Z,99774.25
2023-01-08T12:52:36.914Z,99774.13
2023-01-08T12:54:00.729Z,99775.88
2023-01-08T12:56:12.275Z,99769.00
2023-01-08T13:00:10.388Z,99779.63
2023-01-08T13:06:33.942Z,99779.69
2023-01-08T13:08:36.567Z,99774.59
2023-01-08T13:13:18.072Z,99765.94
2023-01-08T13:15:02.148Z,99759.78
2023-01-08T13:16:26.889Z,99765.81
2023-01-08T13:17:40.190Z,99764.94
2023-01-08T13:20:40.605Z,99764.81
2023-01-08T13:24:21.905Z,99750.72
2023-01-08T13:25:36.102Z,99755.09
2023-01-08T13:26:42.413Z,99753.28
2023-01-08T13:28:19.816Z,99741.91
2023-01-08T13:29:51.421Z,99740.28
2023-01-08T13:31:38.631Z,99728.91